Time,TemperatureF,DewpointF,PressureIn,WindDirection,WindDirectionDegrees,WindSpeedMPH,WindSpeedGustMPH,Humidity,HourlyPrecipIn,Conditions,Clouds,dailyrainin,SoftwareType,DateUTC
2013-01-29 00:22:00,36.0,35.0,29.99,SW,225,0.0,7.0,95,0.04,,,0.04,,2013-01-29 05:22:00,
2013-01-29 00:32:00,36.0,35.0,29.99,SW,225,0.0,7.0,95,0.04,,,0.04,,2013-01-29 05:32:00,
2013-01-29 00:43:00,36.0,35.0,29.99,SW,225,0.0,7.0,95,0.04,,,0.04,,2013-01-29 05:43:00,
2013-01-29 00:52:00,36.0,35.0,29.99,SW,225,0.0,7.0,95,0.04,,,0.04,,2013-01-29 05:52:00,
2013-01-29 01:02:00,36.0,35.0,29.99,SW,225,0.0,7.0,95,0.04,,,0.04,,2013-01-29 06:02:00,
2013-01-29 01:22:00,37.0,36.0,29.98,SW,221,1.0,4.0,95,0.22,,,0.26,,2013-01-29 06:22:00,
2013-01-29 01:32:00,37.0,36.0,29.98,SW,221,1.0,4.0,95,0.22,,,0.26,,2013-01-29 06:32:00,
2013-01-29 01:42:00,37.0,36.0,29.98,SW,221,1.0,4.0,95,0.22,,,0.26,,2013-01-29 06:42:00,
2013-01-29 01:52:00,37.0,36.0,29.98,SW,221,1.0,4.0,95,0.22,,,0.26,,2013-01-29 06:52:00,
2013-01-29 02:01:00,37.0,36.0,29.98,SW,221,1.0,4.0,95,0.22,,,0.26,,2013-01-29 07:01:00,
2013-01-29 03:21:00,42.0,41.0,29.99,SW,235,1.0,4.0,95,0.00,,,0.32,,2013-01-29 08:21:00,
2013-01-29 03:32:00,42.0,41.0,29.99,SW,235,1.0,4.0,95,0.00,,,0.32,,2013-01-29 08:32:00,
2013-01-29 03:42:00,42.0,41.0,29.99,SW,235,1.0,4.0,95,0.00,,,0.32,,2013-01-29 08:42:00,
2013-01-29 03:52:00,42.0,41.0,29.99,SW,235,1.0,4.0,95,0.00,,,0.32,,2013-01-29 08:52:00,
2013-01-29 04:02:00,42.0,41.0,29.99,SW,235,1.0,4.0,95,0.00,,,0.32,,2013-01-29 09:02:00,
2013-01-29 04:22:00,41.0,40.0,30.01,SW,227,0.0,2.0,95,0.00,,,0.32,,2013-01-29 09:22:00,
2013-01-29 04:32:00,41.0,40.0,30.01,SW,227,0.0,2.0,95,0.00,,,0.32,,2013-01-29 09:32:00,
2013-01-29 04:42:00,41.0,40.0,30.01,SW,227,0.0,2.0,95,0.00,,,0.32,,2013-01-29 09:42:00,
2013-01-29 04:52:00,41.0,40.0,30.01,SW,227,0.0,2.0,95,0.00,,,0.32,,2013-01-29 09:52:00,
2013-01-29 05:01:00,41.0,40.0,30.01,SW,227,0.0,2.0,95,0.00,,,0.32,,2013-01-29 10:01:00,
2013-01-29 07:22:00,41.0,40.0,30.06,SW,230,0.0,0.0,95,0.00,,,0.32,,2013-01-29 12:22:00,
2013-01-29 07:33:00,41.0,40.0,30.06,SW,230,0.0,0.0,95,0.00,,,0.32,,2013-01-29 12:33:00,
2013-01-29 07:43:00,41.0,40.0,30.06,SW,230,0.0,0.0,95,0.00,,,0.32,,2013-01-29 12:43:00,
2013-01-29 07:53:00,41.0,40.0,30.06,SW,230,0.0,0.0,95,0.00,,,0.32,,2013-01-29 12:53:00,
2013-01-29 08:02:00,41.0,40.0,30.06,SW,230,0.0,0.0,95,0.00,,,0.32,,2013-01-29 13:02:00,
2013-01-29 09:12:00,42.0,41.0,30.08,SW,231,0.0,3.0,95,0.00,,,0.32,,2013-01-29 14:12:00,
2013-01-29 09:22:00,42.0,41.0,30.08,SW,231,0.0,3.0,95,0.00,,,0.32,,2013-01-29 14:22:00,
2013-01-29 09:33:00,42.0,41.0,30.08,SW,231,0.0,3.0,95,0.00,,,0.32,,2013-01-29 14:33:00,
2013-01-29 09:43:00,42.0,41.0,30.08,SW,231,0.0,3.0,95,0.00,,,0.32,,2013-01-29 14:43:00,
2013-01-29 09:53:00,42.0,41.0,30.08,SW,231,0.0,3.0,95,0.00,,,0.32,,2013-01-29 14:53:00,
2013-01-29 10:02:00,42.0,41.0,30.08,SW,231,0.0,3.0,95,0.00,,,0.32,,2013-01-29 15:02:00,
2013-01-29 10:03:00,46.0,45.0,30.10,SW,230,0.0,3.0,96,0.00,,,0.32,,2013-01-29 15:03:00,
2013-01-29 10:22:00,46.0,45.0,30.10,SW,230,0.0,3.0,96,0.00,,,0.32,,2013-01-29 15:22:00,
2013-01-29 10:33:00,46.0,45.0,30.10,SW,230,0.0,3.0,96,0.00,,,0.32,,2013-01-29 15:33:00,
2013-01-29 10:43:00,46.0,45.0,30.10,SW,230,0.0,3.0,96,0.00,,,0.32,,2013-01-29 15:43:00,
2013-01-29 10:53:00,46.0,45.0,30.10,SW,230,0.0,3.0,96,0.00,,,0.32,,2013-01-29 15:53:00,
2013-01-29 11:03:00,47.0,46.0,30.09,SW,231,0.0,0.0,95,0.00,,,0.32,,2013-01-29 16:03:00,
2013-01-29 11:23:00,47.0,46.0,30.09,SW,231,0.0,0.0,95,0.00,,,0.32,,2013-01-29 16:23:00,
2013-01-29 11:33:00,47.0,46.0,30.09,SW,231,0.0,0.0,95,0.00,,,0.32,,2013-01-29 16:33:00,
2013-01-29 11:43:00,47.0,46.0,30.09,SW,231,0.0,0.0,95,0.00,,,0.32,,2013-01-29 16:43:00,
2013-01-29 11:53:00,47.0,46.0,30.09,SW,231,0.0,0.0,95,0.00,,,0.32,,2013-01-29 16:53:00,
2013-01-29 12:04:00,47.0,45.0,30.08,East,90,0.0,4.0,94,0.00,,,0.00,,2013-01-29 17:04:00,
2013-01-29 12:22:00,47.0,45.0,30.08,East,90,0.0,4.0,94,0.00,,,0.00,,2013-01-29 17:22:00,
2013-01-29 12:33:00,47.0,45.0,30.08,East,90,0.0,4.0,94,0.00,,,0.00,,2013-01-29 17:33:00,
2013-01-29 12:42:00,47.0,45.0,30.08,East,90,0.0,4.0,94,0.00,,,0.00,,2013-01-29 17:42:00,
2013-01-29 12:52:00,47.0,45.0,30.08,East,90,0.0,4.0,94,0.00,,,0.00,,2013-01-29 17:52:00,
2013-01-29 13:22:00,49.0,47.0,30.06,East,90,0.0,0.0,92,0.00,,,0.00,,2013-01-29 18:22:00,
2013-01-29 13:33:00,49.0,47.0,30.06,East,90,0.0,0.0,92,0.00,,,0.00,,2013-01-29 18:33:00,
2013-01-29 13:42:00,49.0,47.0,30.06,East,90,0.0,0.0,92,0.00,,,0.00,,2013-01-29 18:42:00,
2013-01-29 13:52:00,49.0,47.0,30.06,East,90,0.0,0.0,92,0.00,,,0.00,,2013-01-29 18:52:00,
2013-01-29 14:03:00,49.0,47.0,30.06,East,90,0.0,0.0,92,0.00,,,0.00,,2013-01-29 19:03:00,
2013-01-29 14:23:00,49.0,46.0,30.02,East,90,0.0,0.0,90,0.00,,,0.00,,2013-01-29 19:23:00,
2013-01-29 14:33:00,49.0,46.0,30.02,East,90,0.0,0.0,90,0.00,,,0.00,,2013-01-29 19:33:00,
2013-01-29 14:42:00,49.0,46.0,30.02,East,90,0.0,0.0,90,0.00,,,0.00,,2013-01-29 19:42:00,
2013-01-29 14:52:00,49.0,46.0,30.02,East,90,0.0,0.0,90,0.00,,,0.00,,2013-01-29 19:52:00,
2013-01-29 15:02:00,49.0,46.0,30.02,East,90,0.0,0.0,90,0.00,,,0.00,,2013-01-29 20:02:00,
2013-01-29 15:23:00,53.0,49.0,30.03,East,97,0.0,2.0,87,0.00,,,0.00,,2013-01-29 20:23:00,
2013-01-29 15:33:00,53.0,49.0,30.03,East,97,0.0,2.0,87,0.00,,,0.00,,2013-01-29 20:33:00,
2013-01-29 15:42:00,53.0,49.0,30.03,East,97,0.0,2.0,87,0.00,,,0.00,,2013-01-29 20:42:00,
2013-01-29 15:53:00,53.0,49.0,30.03,East,97,0.0,2.0,87,0.00,,,0.00,,2013-01-29 20:53:00,
2013-01-29 16:03:00,53.0,49.0,30.03,East,97,0.0,2.0,87,0.00,,,0.00,,2013-01-29 21:03:00,
2013-01-29 19:22:00,47.0,45.0,30.03,East,97,0.0,0.0,92,0.00,,,0.00,,2013-01-30 00:22:00,
2013-01-29 19:33:00,47.0,45.0,30.03,East,97,0.0,0.0,92,0.00,,,0.00,,2013-01-30 00:33:00,
2013-01-29 19:43:00,47.0,45.0,30.03,East,97,0.0,0.0,92,0.00,,,0.00,,2013-01-30 00:43:00,
2013-01-29 19:53:00,47.0,45.0,30.03,East,97,0.0,0.0,92,0.00,,,0.00,,2013-01-30 00:53:00,
2013-01-29 20:02:00,47.0,45.0,30.03,East,97,0.0,0.0,92,0.00,,,0.00,,2013-01-30 01:02:00,
2013-01-29 22:22:00,44.0,43.0,30.01,East,97,0.0,0.0,95,0.00,,,0.00,,2013-01-30 03:22:00,
2013-01-29 22:32:00,44.0,43.0,30.01,East,97,0.0,0.0,95,0.00,,,0.00,,2013-01-30 03:32:00,
2013-01-29 22:42:00,44.0,43.0,30.01,East,97,0.0,0.0,95,0.00,,,0.00,,2013-01-30 03:42:00,
2013-01-29 22:52:00,44.0,43.0,30.01,East,97,0.0,0.0,95,0.00,,,0.00,,2013-01-30 03:52:00,
2013-01-29 23:02:00,44.0,43.0,30.01,East,97,0.0,0.0,95,0.00,,,0.00,,2013-01-30 04:02:00,